Accueil
METAR-TAF:

METAR-TAF

Aéroports :

Buochs, Suisse

latitude: 46-58-28N, longitude: 8-23-49E, altitude: 449 m

Observation

Le bulletin a été fait il y a 6 minutes, à 00:20 UTC
Vent 3 kt de ouest/sud-ouest
Température 19°C
Humidité 83%
Pression 1019 hPa
Visibilité 10 km ou plus
pas de nuages en-dessous de 1500 mètres et pas de cumulonimbus.

METAR: LSZC 210020Z AUTO 25003KT CAVOK 19/16 Q1019

Heure: 02:26 (00:26 UTC)

Prévision

Le bulletin a été fait il y a 10 heures et 1 minutes, à 14:25 UTC
Prévision valable du 20 à 15 UTC au 20 à 24 UTC
Vent 3 kt de direction variable
Visibilité 10 km ou plus
pas de nuages en-dessous de 1500 mètres et pas de cumulonimbus.
Temporairement
du 20 à 15 UTC au 20 à 18 UTC
Visibilité 10 km ou plus
Quelques nuages à une hauteur de 6000 ft

TAF: LSZC 201425Z 2015/2024 VRB03KT CAVOK TEMPO 2015/2018 9999 FEW060

Observations et prévisions météorologiques de plus de 4000 aéroports (messages METAR et TAF).

Les stations disponibles sont représentées par des disques jaunes et rouges sur la carte.

Passer la souris dessus pour voir le nom de la station.

Cliquer dessus pour voir les observations et prévisions météorologiques.

Pour changer de carte: cliquez sur les boutons verts avec une croix noire pour zoomer, sur le bouton vert avec un tiret pour effectuer un zoom arrière, ou sur les flèches vertes pour les cartes adjacentes.


METAR-TAF: